Terminal Aerodrome Forecast
Issued by NWS Charleston, WV

Home | Current Version | Previous Version | Text Only | Print | Product List | Glossary On
Versions: 1 2 3 4 5 6 7 8 9 10 11 12 13 14 15 16 17 18 19 20 21 22 23 24
000
FTUS41 KRLX 040500 RRA
TAFEKN
TAF
KEKN 040543Z 0406/0506 24013G20KT 6SM -RA OVC020
     FM040900 28009KT 3SM -RA BR OVC010
     FM041000 30006KT 3SM -RA OVC008
     FM041700 23005KT 2SM +RA OVC008
     FM050400 33007KT 2SM +RASNPL OVC010=

USA.gov is the U.S. government's official web portal to all federal, state and local government web resources and services.